Time;durP1;ratioP1;P1;durP2;ratioP2;P2;SDS_P1;SDS_P2;PMS_P1;PMS_P2;Temp;Humidity;BMP_temperature;BMP_pressure;BME280_temperature;BME280_humidity;BME280_pressure;Samples;Min_cycle;Max_cycle;Signal;HPM_P1;HPM_P2
2021/12/23 00:00:16;;;;;;;0.00;0.00;;;-2.40;99.90;;;;;;4998606;28;20018;-66
2021/12/23 00:02:42;;;;;;;0.00;0.00;;;-2.40;99.90;;;;;;5001167;28;20080;-67
2021/12/23 00:05:09;;;;;;;0.00;0.00;;;-2.30;99.90;;;;;;5002031;28;20046;-67
2021/12/23 00:07:35;;;;;;;0.00;0.00;;;-2.40;99.90;;;;;;5000321;28;20087;-66
2021/12/23 00:10:08;;;;;;;0.00;0.00;;;-2.40;99.90;;;;;;5000917;28;20116;-67
2021/12/23 00:12:42;;;;;;;0.00;0.00;;;-2.40;99.90;;;;;;5001217;28;20018;-67
2021/12/23 00:15:22;;;;;;;0.00;0.00;;;-2.40;99.90;;;;;;4994334;28;20091;-67
2021/12/23 00:25:37;;;;;;;0.00;0.00;;;-2.30;99.90;;;;;;4998923;28;20029;-66
2021/12/23 00:28:03;;;;;;;0.00;0.00;;;-2.20;99.90;;;;;;4999156;28;20038;-67
2021/12/23 00:30:29;;;;;;;0.00;0.00;;;-2.20;99.90;;;;;;4999797;28;20446;-67
2021/12/23 00:32:56;;;;;;;0.00;0.00;;;-2.10;99.90;;;;;;5002216;28;20065;-67
2021/12/23 00:35:22;;;;;;;0.00;0.00;;;-2.10;99.90;;;;;;4999866;28;20033;-67
2021/12/23 00:37:50;;;;;;;0.00;0.00;;;-2.00;99.90;;;;;;5000777;28;20085;-67
2021/12/23 00:40:18;;;;;;;0.00;0.00;;;-2.00;99.90;;;;;;4998707;28;20022;-67
2021/12/23 00:42:44;;;;;;;0.00;0.00;;;-2.00;99.90;;;;;;5000329;28;20428;-67
2021/12/23 00:45:10;;;;;;;0.00;0.00;;;-1.90;99.90;;;;;;4999725;28;20029;-67
2021/12/23 00:47:35;;;;;;;0.00;0.00;;;-1.80;99.90;;;;;;5001824;28;20037;-67
2021/12/23 00:50:02;;;;;;;0.00;0.00;;;-1.80;99.90;;;;;;4998814;28;20022;-67
2021/12/23 00:52:34;;;;;;;0.00;0.00;;;-1.80;99.90;;;;;;4996378;28;20027;-66
2021/12/23 00:55:01;;;;;;;0.00;0.00;;;-1.80;99.90;;;;;;4999183;28;20041;-67
2021/12/23 00:57:29;;;;;;;0.00;0.00;;;-1.80;99.90;;;;;;5002190;28;20265;-66
2021/12/23 00:59:56;;;;;;;0.00;0.00;;;-1.80;99.90;;;;;;5001603;28;20038;-67
2021/12/23 01:02:30;;;;;;;0.00;0.00;;;-1.70;99.90;;;;;;5000670;28;20109;-67
2021/12/23 01:04:56;;;;;;;0.00;0.00;;;-1.70;99.90;;;;;;4999208;28;20434;-67
2021/12/23 01:07:22;;;;;;;0.00;0.00;;;-1.70;99.90;;;;;;5000905;28;20034;-67
2021/12/23 01:09:47;;;;;;;0.00;0.00;;;-1.70;99.90;;;;;;5003615;28;20148;-66
2021/12/23 01:12:17;;;;;;;0.00;0.00;;;-1.60;99.90;;;;;;5000830;28;20048;-67
2021/12/23 01:14:54;;;;;;;0.00;0.00;;;-1.60;99.90;;;;;;4995798;28;20031;-67
2021/12/23 01:19:52;;;;;;;0.00;0.00;;;-1.60;99.90;;;;;;5000782;28;20058;-66
2021/12/23 01:22:19;;;;;;;0.00;0.00;;;-1.50;99.90;;;;;;4991005;28;20054;-67
2021/12/23 01:24:46;;;;;;;0.00;0.00;;;-1.50;99.90;;;;;;4992712;28;20420;-67
2021/12/23 01:27:11;;;;;;;0.00;0.00;;;-1.50;99.90;;;;;;4991825;28;20034;-67
2021/12/23 01:29:37;;;;;;;0.00;0.00;;;-1.40;99.90;;;;;;4991061;28;20085;-67
2021/12/23 01:32:05;;;;;;;0.00;0.00;;;-1.40;99.90;;;;;;4992766;28;20026;-67
2021/12/23 01:34:33;;;;;;;0.00;0.00;;;-1.40;99.90;;;;;;4994859;28;20025;-66
2021/12/23 01:37:03;;;;;;;0.00;0.00;;;-1.40;99.90;;;;;;4992017;28;20081;-67
2021/12/23 01:39:29;;;;;;;0.00;0.00;;;-1.40;99.90;;;;;;4991925;28;20121;-67
2021/12/23 01:41:54;;;;;;;0.00;0.00;;;-1.40;99.90;;;;;;4991580;28;20455;-67
2021/12/23 01:44:20;;;;;;;0.00;0.00;;;-1.40;99.90;;;;;;4991444;28;20046;-67
2021/12/23 01:46:46;;;;;;;0.00;0.00;;;-1.40;99.90;;;;;;4991687;28;20117;-67
2021/12/23 01:49:13;;;;;;;0.00;0.00;;;-1.40;99.90;;;;;;4991676;28;20033;-67
2021/12/23 01:51:39;;;;;;;0.00;0.00;;;-1.40;99.90;;;;;;4991336;28;20045;-67
2021/12/23 01:54:04;;;;;;;0.00;0.00;;;-1.40;99.90;;;;;;4991826;28;20595;-67
2021/12/23 01:56:30;;;;;;;0.00;0.00;;;-1.50;99.90;;;;;;4996605;28;20062;-67
2021/12/23 01:58:56;;;;;;;0.00;0.00;;;-1.50;99.90;;;;;;4995186;28;20029;-67
2021/12/23 02:01:21;;;;;;;0.00;0.00;;;-1.50;99.90;;;;;;4996129;28;20034;-67
2021/12/23 02:03:47;;;;;;;0.00;0.00;;;-1.50;99.90;;;;;;4995868;28;20157;-66
2021/12/23 02:06:13;;;;;;;0.00;0.00;;;-1.60;99.90;;;;;;4995299;28;20042;-67
2021/12/23 02:08:39;;;;;;;0.00;0.00;;;-1.60;99.90;;;;;;4995382;28;20048;-66
2021/12/23 02:11:07;;;;;;;0.00;0.00;;;-1.60;99.90;;;;;;4994994;28;20026;-67
2021/12/23 02:13:34;;;;;;;0.00;0.00;;;-1.70;99.90;;;;;;4994965;28;20028;-66
2021/12/23 02:16:00;;;;;;;0.00;0.00;;;-1.70;99.90;;;;;;4995316;28;20034;-67
2021/12/23 02:18:26;;;;;;;0.00;0.00;;;-1.80;99.90;;;;;;4995490;28;20020;-66
2021/12/23 02:20:53;;;;;;;0.00;0.00;;;-1.80;99.90;;;;;;4995302;28;20530;-67
2021/12/23 02:23:19;;;;;;;0.00;0.00;;;-1.90;99.90;;;;;;4995967;28;20093;-66
2021/12/23 02:25:44;;;;;;;0.00;0.00;;;-2.00;99.90;;;;;;4996655;28;20022;-67
2021/12/23 02:28:15;;;;;;;0.00;0.00;;;-2.10;99.90;;;;;;4995712;28;20110;-67
2021/12/23 02:30:41;;;;;;;0.00;0.00;;;-2.10;99.90;;;;;;5003084;28;20454;-67
2021/12/23 02:33:07;;;;;;;0.00;0.00;;;-2.20;99.90;;;;;;4995363;28;20109;-67
2021/12/23 02:35:33;;;;;;;0.00;0.00;;;-2.20;99.90;;;;;;4995575;28;20058;-67
2021/12/23 02:38:00;;;;;;;0.00;0.00;;;-2.20;99.90;;;;;;5002106;28;20030;-67
2021/12/23 02:40:35;;;;;;;0.00;0.00;;;-2.10;99.90;;;;;;4994813;28;20018;-66
2021/12/23 02:43:25;;;;;;;0.00;0.00;;;-2.10;99.90;;;;;;4996956;28;20485;-67
2021/12/23 02:45:54;;;;;;;0.00;0.00;;;-2.10;99.90;;;;;;4995417;28;20035;-67
2021/12/23 02:48:21;;;;;;;0.00;0.00;;;-2.10;99.90;;;;;;4995419;28;20027;-67
2021/12/23 02:50:50;;;;;;;0.00;0.00;;;-2.00;99.90;;;;;;4995006;28;20034;-67
2021/12/23 02:53:16;;;;;;;0.00;0.00;;;-2.00;99.90;;;;;;4995201;28;20053;-66
2021/12/23 02:55:42;;;;;;;0.00;0.00;;;-2.00;99.90;;;;;;5000147;28;20057;-67
2021/12/23 02:58:09;;;;;;;0.00;0.00;;;-2.00;99.90;;;;;;4995253;28;20023;-67
2021/12/23 03:00:35;;;;;;;0.00;0.00;;;-2.00;99.90;;;;;;4995640;28;20038;-67
2021/12/23 03:03:01;;;;;;;0.00;0.00;;;-2.00;99.90;;;;;;4994969;28;20018;-67
2021/12/23 03:05:27;;;;;;;0.00;0.00;;;-2.00;99.90;;;;;;4994723;28;20370;-67
2021/12/23 03:07:52;;;;;;;0.00;0.00;;;-2.00;99.90;;;;;;4994771;28;20045;-67
2021/12/23 03:10:21;;;;;;;0.00;0.00;;;-2.10;99.90;;;;;;4994527;28;20026;-67
2021/12/23 03:12:47;;;;;;;0.00;0.00;;;-2.10;99.90;;;;;;4997356;28;20049;-67
2021/12/23 03:15:13;;;;;;;0.00;0.00;;;-2.10;99.90;;;;;;4998235;28;20584;-67
2021/12/23 03:17:38;;;;;;;0.00;0.00;;;-2.10;99.90;;;;;;4994965;28;20022;-67
2021/12/23 03:20:05;;;;;;;0.00;0.00;;;-2.20;99.90;;;;;;4997716;28;20113;-67
2021/12/23 03:22:32;;;;;;;0.00;0.00;;;-2.20;99.90;;;;;;4991785;28;20027;-67
2021/12/23 03:24:58;;;;;;;0.00;0.00;;;-2.20;99.90;;;;;;4996417;28;20382;-67
2021/12/23 03:27:23;;;;;;;0.00;0.00;;;-2.20;99.90;;;;;;4993633;28;20027;-67
2021/12/23 03:29:49;;;;;;;0.00;0.00;;;-2.20;99.90;;;;;;4993926;28;20037;-66
2021/12/23 03:32:15;;;;;;;0.00;0.00;;;-2.20;99.90;;;;;;5015679;28;20475;-67
2021/12/23 03:34:41;;;;;;;0.00;0.00;;;-2.20;99.90;;;;;;4997516;28;20034;-67
2021/12/23 03:37:06;;;;;;;0.00;0.00;;;-2.10;99.90;;;;;;4993986;28;20113;-67
2021/12/23 03:39:32;;;;;;;0.00;0.00;;;-2.10;99.90;;;;;;4992813;28;20029;-67
2021/12/23 03:41:58;;;;;;;0.00;0.00;;;-2.00;99.90;;;;;;4992221;28;20026;-67
2021/12/23 03:44:23;;;;;;;0.00;0.00;;;-1.90;99.90;;;;;;4996337;28;20026;-67
2021/12/23 03:46:49;;;;;;;0.00;0.00;;;-1.90;99.90;;;;;;5009628;28;20030;-67
2021/12/23 03:49:15;;;;;;;0.00;0.00;;;-1.80;99.90;;;;;;4997003;28;20022;-67
2021/12/23 03:51:40;;;;;;;0.00;0.00;;;-1.80;99.90;;;;;;4992880;28;20031;-68
2021/12/23 03:54:06;;;;;;;0.00;0.00;;;-1.70;99.90;;;;;;4992976;28;20386;-68
2021/12/23 03:56:32;;;;;;;0.00;0.00;;;-1.70;99.90;;;;;;4994280;28;20076;-67
2021/12/23 03:58:57;;;;;;;0.00;0.00;;;-1.70;99.90;;;;;;4993434;28;20365;-67
2021/12/23 04:01:26;;;;;;;0.00;0.00;;;-1.60;99.90;;;;;;4992195;28;20026;-67
2021/12/23 04:03:52;;;;;;;0.00;0.00;;;-1.50;99.90;;;;;;4993325;28;20038;-67
2021/12/23 04:06:19;;;;;;;0.00;0.00;;;-1.40;99.90;;;;;;4992423;28;20030;-67
2021/12/23 04:08:45;;;;;;;0.00;0.00;;;-1.30;99.90;;;;;;4992065;28;20541;-67
2021/12/23 04:11:11;;;;;;;0.00;0.00;;;-1.30;99.90;;;;;;4994765;28;20121;-67
2021/12/23 04:13:36;;;;;;;0.00;0.00;;;-1.20;99.90;;;;;;4993108;28;20034;-67
2021/12/23 04:16:02;;;;;;;0.00;0.00;;;-1.20;99.90;;;;;;4995007;28;20088;-67
2021/12/23 04:18:27;;;;;;;0.00;0.00;;;-1.20;99.90;;;;;;4991923;28;20021;-65
2021/12/23 04:20:53;;;;;;;0.00;0.00;;;-1.10;99.90;;;;;;4995496;28;20034;-67
2021/12/23 04:23:22;;;;;;;0.00;0.00;;;-1.10;99.90;;;;;;4993149;28;20029;-67
2021/12/23 04:25:48;;;;;;;0.00;0.00;;;-1.10;99.90;;;;;;4992727;28;20030;-67
2021/12/23 04:28:14;;;;;;;0.00;0.00;;;-1.10;99.90;;;;;;4992785;28;20031;-68
2021/12/23 04:30:40;;;;;;;0.00;0.00;;;-1.10;99.90;;;;;;4992188;28;20056;-66
2021/12/23 04:33:06;;;;;;;0.00;0.00;;;-1.00;99.90;;;;;;4992024;28;20029;-68
2021/12/23 04:35:31;;;;;;;0.00;0.00;;;-1.00;99.90;;;;;;4992327;28;20378;-67
2021/12/23 04:37:57;;;;;;;0.00;0.00;;;-1.00;99.90;;;;;;4998477;28;20030;-68
2021/12/23 04:40:22;;;;;;;0.00;0.00;;;-1.00;99.90;;;;;;4991478;28;20061;-66
2021/12/23 04:42:48;;;;;;;0.00;0.00;;;-1.00;99.90;;;;;;4992583;28;20434;-65
2021/12/23 04:45:14;;;;;;;0.00;0.00;;;-1.00;99.90;;;;;;4992564;28;20034;-65
2021/12/23 04:47:40;;;;;;;0.00;0.00;;;-1.00;99.90;;;;;;4991993;28;20036;-65
2021/12/23 04:50:08;;;;;;;0.00;0.00;;;-1.00;99.90;;;;;;4989095;28;20018;-65
2021/12/23 04:52:34;;;;;;;0.00;0.00;;;-1.00;99.90;;;;;;4988453;28;20451;-66
2021/12/23 04:55:00;;;;;;;0.00;0.00;;;-1.00;99.90;;;;;;4990788;28;20474;-66
2021/12/23 04:57:25;;;;;;;0.00;0.00;;;-1.00;99.90;;;;;;4993165;28;20084;-66
2021/12/23 04:59:51;;;;;;;0.00;0.00;;;-1.00;99.90;;;;;;4990711;28;20026;-66
2021/12/23 05:02:17;;;;;;;0.00;0.00;;;-0.90;99.90;;;;;;4988870;28;20109;-66
2021/12/23 05:04:42;;;;;;;0.00;0.00;;;-1.00;99.90;;;;;;4992446;28;20455;-67
2021/12/23 05:07:08;;;;;;;0.00;0.00;;;-1.00;99.90;;;;;;4993073;28;20038;-66
2021/12/23 05:09:33;;;;;;;0.00;0.00;;;-1.10;99.90;;;;;;4987905;28;20022;-66
2021/12/23 05:11:59;;;;;;;0.00;0.00;;;-1.00;99.90;;;;;;4989061;28;20045;-66
2021/12/23 05:14:24;;;;;;;0.00;0.00;;;-1.00;99.90;;;;;;4992162;28;20034;-66
2021/12/23 05:16:50;;;;;;;0.00;0.00;;;-1.00;99.90;;;;;;4986280;28;20030;-66
2021/12/23 05:19:15;;;;;;;0.00;0.00;;;-1.00;99.90;;;;;;4992141;28;20026;-66
2021/12/23 05:21:41;;;;;;;0.00;0.00;;;-1.00;99.90;;;;;;4992127;28;20483;-66
2021/12/23 05:24:06;;;;;;;0.00;0.00;;;-1.00;99.90;;;;;;4991770;28;20042;-66
2021/12/23 05:26:32;;;;;;;0.00;0.00;;;-1.00;99.90;;;;;;4991851;28;20485;-66
2021/12/23 05:28:57;;;;;;;0.00;0.00;;;-0.90;99.90;;;;;;4992003;28;20027;-66
2021/12/23 05:31:24;;;;;;;0.00;0.00;;;-0.90;99.90;;;;;;4991275;28;20022;-66
2021/12/23 05:33:50;;;;;;;0.00;0.00;;;-0.80;99.90;;;;;;4996797;28;20117;-66
2021/12/23 05:36:15;;;;;;;0.00;0.00;;;-0.80;99.90;;;;;;4994729;28;20137;-66
2021/12/23 05:38:41;;;;;;;0.00;0.00;;;-0.80;99.90;;;;;;4996600;28;20030;-66
2021/12/23 05:41:06;;;;;;;0.00;0.00;;;-0.80;99.90;;;;;;4994792;28;20022;-66
2021/12/23 05:43:32;;;;;;;0.00;0.00;;;-0.80;99.90;;;;;;4996602;28;20030;-66
2021/12/23 05:45:58;;;;;;;0.00;0.00;;;-0.70;99.90;;;;;;4985377;28;20033;-67
2021/12/23 05:48:24;;;;;;;0.00;0.00;;;-0.70;99.90;;;;;;4996719;28;20113;-66
2021/12/23 05:50:49;;;;;;;0.00;0.00;;;-0.70;99.90;;;;;;4994719;28;20687;-66
2021/12/23 05:53:15;;;;;;;0.00;0.00;;;-0.70;99.90;;;;;;4996514;28;20088;-66
2021/12/23 05:55:40;;;;;;;0.00;0.00;;;-0.70;99.90;;;;;;4994761;28;20030;-65
2021/12/23 05:58:06;;;;;;;0.00;0.00;;;-0.70;99.90;;;;;;4996332;28;20030;-66
2021/12/23 06:00:32;;;;;;;0.00;0.00;;;-0.70;99.90;;;;;;4994658;28;20088;-65
2021/12/23 06:03:00;;;;;;;0.00;0.00;;;-0.60;99.90;;;;;;4996042;28;20027;-66
2021/12/23 06:05:26;;;;;;;0.00;0.00;;;-0.60;99.90;;;;;;4986729;28;20030;-66
2021/12/23 06:07:52;;;;;;;0.00;0.00;;;-0.60;99.90;;;;;;4996385;28;20381;-65
2021/12/23 06:10:18;;;;;;;0.00;0.00;;;-0.60;99.90;;;;;;4994058;28;20049;-66
2021/12/23 06:12:45;;;;;;;0.00;0.00;;;-0.60;99.90;;;;;;4995365;28;20366;-66
2021/12/23 06:15:11;;;;;;;0.00;0.00;;;-0.60;99.90;;;;;;4990403;28;20034;-66
2021/12/23 06:17:37;;;;;;;0.00;0.00;;;-0.60;99.90;;;;;;5005157;28;20044;-66
2021/12/23 06:20:05;;;;;;;0.00;0.00;;;-0.50;99.90;;;;;;4995114;28;20038;-66
2021/12/23 06:22:34;;;;;;;0.00;0.00;;;-0.50;99.90;;;;;;4995911;28;20022;-66
2021/12/23 06:24:59;;;;;;;0.00;0.00;;;-0.50;99.90;;;;;;4995723;28;20027;-66
2021/12/23 06:27:25;;;;;;;0.00;0.00;;;-0.50;99.90;;;;;;4995870;28;20036;-66
2021/12/23 06:29:51;;;;;;;0.00;0.00;;;-0.50;99.90;;;;;;4998542;28;20041;-67
2021/12/23 06:32:16;;;;;;;0.00;0.00;;;-0.40;99.90;;;;;;5004691;28;20065;-66
2021/12/23 06:34:42;;;;;;;0.00;0.00;;;-0.50;99.90;;;;;;5001800;28;20030;-67
2021/12/23 06:37:08;;;;;;;0.00;0.00;;;-0.40;99.90;;;;;;5004747;28;20106;-66
2021/12/23 06:39:35;;;;;;;0.00;0.00;;;-0.40;99.90;;;;;;4997295;28;20050;-65
2021/12/23 06:42:01;;;;;;;0.00;0.00;;;-0.40;99.90;;;;;;4999402;28;20373;-66
2021/12/23 06:44:27;;;;;;;0.00;0.00;;;-0.40;99.90;;;;;;4997058;28;20038;-66
2021/12/23 06:46:53;;;;;;;0.00;0.00;;;-0.30;99.90;;;;;;4995363;28;20026;-66
2021/12/23 06:49:19;;;;;;;0.00;0.00;;;-0.20;99.90;;;;;;4995302;28;20530;-66
2021/12/23 06:51:45;;;;;;;0.00;0.00;;;-0.20;99.90;;;;;;4994606;28;20114;-66
2021/12/23 06:54:14;;;;;;;0.00;0.00;;;-0.30;99.90;;;;;;4995121;28;20027;-66
2021/12/23 06:56:39;;;;;;;0.00;0.00;;;-0.30;99.90;;;;;;4994832;28;20097;-67
2021/12/23 06:59:05;;;;;;;0.00;0.00;;;-0.30;99.90;;;;;;4994945;28;20213;-66
2021/12/23 07:01:30;;;;;;;0.00;0.00;;;-0.30;99.90;;;;;;4994342;28;20420;-66
2021/12/23 07:06:27;;;;;;;0.00;0.00;;;-0.20;99.90;;;;;;4999096;28;20093;-66
2021/12/23 07:08:55;;;;;;;0.00;0.00;;;-0.10;99.90;;;;;;4994881;28;20038;-65
2021/12/23 07:11:20;;;;;;;0.00;0.00;;;-0.10;99.90;;;;;;4994270;28;20034;-66
2021/12/23 07:13:46;;;;;;;0.00;0.00;;;-0.10;99.90;;;;;;4994687;28;20497;-66
2021/12/23 07:16:12;;;;;;;0.00;0.00;;;-0.10;99.90;;;;;;4996901;28;20058;-66
2021/12/23 07:18:37;;;;;;;0.00;0.00;;;-0.10;99.90;;;;;;4995034;28;20347;-66
2021/12/23 07:21:03;;;;;;;0.00;0.00;;;-0.10;99.90;;;;;;4994239;28;20045;-67
2021/12/23 07:23:28;;;;;;;0.00;0.00;;;-0.10;99.90;;;;;;4994675;28;20022;-67
2021/12/23 07:25:54;;;;;;;0.00;0.00;;;0.00;99.90;;;;;;4994289;28;20035;-66
2021/12/23 07:28:19;;;;;;;0.00;0.00;;;0.00;99.90;;;;;;4994501;28;20038;-67
2021/12/23 07:30:45;;;;;;;0.00;0.00;;;0.00;99.90;;;;;;4994249;28;20109;-66
2021/12/23 07:33:11;;;;;;;0.00;0.00;;;0.00;99.90;;;;;;4999409;28;20026;-67
2021/12/23 07:35:36;;;;;;;0.00;0.00;;;0.00;99.90;;;;;;4996785;28;20605;-66
2021/12/23 07:38:02;;;;;;;0.00;0.00;;;0.00;99.90;;;;;;4995105;28;20046;-67
2021/12/23 07:40:29;;;;;;;0.00;0.00;;;0.10;99.90;;;;;;4993643;28;20033;-68
2021/12/23 07:42:56;;;;;;;0.00;0.00;;;0.10;99.90;;;;;;4994363;28;20026;-66
2021/12/23 07:45:25;;;;;;;0.00;0.00;;;0.20;99.90;;;;;;4995267;28;20108;-67
2021/12/23 07:47:51;;;;;;;0.00;0.00;;;0.10;99.90;;;;;;5005390;28;20073;-67
2021/12/23 07:50:18;;;;;;;0.00;0.00;;;0.20;99.90;;;;;;4995547;28;20097;-67
2021/12/23 07:52:43;;;;;;;0.00;0.00;;;0.20;99.90;;;;;;4996419;28;20033;-66
2021/12/23 07:55:09;;;;;;;0.00;0.00;;;0.20;99.90;;;;;;4993716;28;20026;-67
2021/12/23 07:57:34;;;;;;;0.00;0.00;;;0.20;99.90;;;;;;4994205;28;20026;-67
2021/12/23 08:00:01;;;;;;;0.10;0.00;;;0.20;99.90;;;;;;5000264;28;20117;-67
2021/12/23 08:02:26;;;;;;;0.00;0.00;;;0.20;99.90;;;;;;4994096;28;20026;-67
2021/12/23 08:04:52;;;;;;;0.00;0.00;;;0.20;99.90;;;;;;5000381;28;20041;-67
2021/12/23 08:07:18;;;;;;;0.00;0.00;;;0.20;99.90;;;;;;4993819;28;20394;-66
2021/12/23 08:09:43;;;;;;;0.00;0.00;;;0.30;99.90;;;;;;4993512;28;20101;-66
2021/12/23 08:12:10;;;;;;;0.00;0.00;;;0.30;99.90;;;;;;5003333;28;20022;-67
2021/12/23 08:14:35;;;;;;;0.00;0.00;;;0.30;99.90;;;;;;4996221;28;20045;-67
2021/12/23 08:17:01;;;;;;;0.00;0.00;;;0.20;99.90;;;;;;5001795;28;20023;-67
2021/12/23 08:19:26;;;;;;;0.00;0.00;;;0.30;99.90;;;;;;4999824;28;21419;-67
2021/12/23 08:21:52;;;;;;;0.00;0.00;;;0.30;99.90;;;;;;4994889;28;20096;-67
2021/12/23 08:24:17;;;;;;;0.00;0.00;;;0.30;99.90;;;;;;4997557;28;20041;-67
2021/12/23 08:26:50;;;;;;;0.00;0.00;;;0.30;99.90;;;;;;4995472;28;20045;-66
2021/12/23 08:29:19;;;;;;;0.00;0.00;;;0.30;99.90;;;;;;4993595;28;20034;-67
2021/12/23 08:31:45;;;;;;;0.00;0.00;;;0.30;99.90;;;;;;4992708;28;20034;-67
2021/12/23 08:34:11;;;;;;;0.00;0.00;;;0.30;99.90;;;;;;4992899;28;20081;-67
2021/12/23 08:36:36;;;;;;;0.00;0.00;;;0.40;99.90;;;;;;4993280;28;20377;-67
2021/12/23 08:39:02;;;;;;;0.00;0.00;;;0.30;99.90;;;;;;5002629;28;20061;-67
2021/12/23 08:41:28;;;;;;;0.00;0.00;;;0.40;99.90;;;;;;4993486;28;20034;-67
2021/12/23 08:43:53;;;;;;;0.00;0.00;;;0.40;99.90;;;;;;4993413;28;20073;-67
2021/12/23 08:46:20;;;;;;;0.00;0.00;;;0.40;99.90;;;;;;4992955;28;20073;-67
2021/12/23 08:48:45;;;;;;;0.00;0.00;;;0.40;99.90;;;;;;4993159;28;20118;-67
2021/12/23 08:51:11;;;;;;;0.00;0.00;;;0.40;99.90;;;;;;4992465;28;20117;-68
2021/12/23 08:53:36;;;;;;;0.00;0.00;;;0.40;99.90;;;;;;4985086;28;20454;-67
2021/12/23 08:56:02;;;;;;;0.00;0.00;;;0.40;99.90;;;;;;4993329;28;20129;-67
2021/12/23 08:58:28;;;;;;;0.00;0.00;;;0.50;99.90;;;;;;4993008;28;20406;-68
2021/12/23 09:00:53;;;;;;;0.00;0.00;;;0.50;99.90;;;;;;4992529;28;20041;-68
2021/12/23 09:03:19;;;;;;;0.00;0.00;;;0.50;99.90;;;;;;4994403;28;20104;-68
2021/12/23 09:05:45;;;;;;;0.00;0.00;;;0.60;99.90;;;;;;4992737;28;20481;-67
2021/12/23 09:08:10;;;;;;;0.00;0.00;;;0.60;99.90;;;;;;4992769;28;20026;-67
2021/12/23 09:10:36;;;;;;;0.00;0.00;;;0.60;99.90;;;;;;4992401;28;20404;-68
2021/12/23 09:13:02;;;;;;;0.00;0.00;;;0.60;99.90;;;;;;4993745;28;20022;-66
2021/12/23 09:15:28;;;;;;;0.00;0.00;;;0.60;99.90;;;;;;4992892;28;20173;-67
2021/12/23 09:17:54;;;;;;;0.00;0.00;;;0.60;99.90;;;;;;4992878;28;20109;-66
2021/12/23 09:20:21;;;;;;;0.00;0.00;;;0.60;99.90;;;;;;4991965;28;20738;-68
2021/12/23 09:22:48;;;;;;;0.00;0.00;;;0.60;99.90;;;;;;4992579;28;20030;-68
2021/12/23 09:25:24;;;;;;;0.00;0.00;;;0.60;99.90;;;;;;4991164;28;20113;-68
2021/12/23 09:28:03;;;;;;;0.00;0.00;;;0.60;99.90;;;;;;4990224;28;20034;-68
2021/12/23 09:33:14;;;;;;;0.00;0.00;;;0.70;99.90;;;;;;4992424;28;20069;-68
2021/12/23 09:35:40;;;;;;;0.00;0.00;;;0.70;99.90;;;;;;4991936;28;20037;-70
2021/12/23 09:38:06;;;;;;;0.00;0.00;;;0.70;99.90;;;;;;4993523;28;20358;-69
2021/12/23 09:40:33;;;;;;;0.00;0.00;;;0.70;99.90;;;;;;4991613;28;20037;-69
2021/12/23 09:43:05;;;;;;;0.00;0.00;;;0.70;99.90;;;;;;4992366;28;20022;-70
2021/12/23 09:45:33;;;;;;;0.00;0.00;;;0.80;99.90;;;;;;4992089;28;20421;-70
2021/12/23 09:48:01;;;;;;;0.00;0.00;;;0.80;99.90;;;;;;4992491;28;20045;-71
2021/12/23 09:50:34;;;;;;;0.00;0.00;;;0.80;99.90;;;;;;4996172;28;20142;-69
2021/12/23 09:53:03;;;;;;;0.00;0.00;;;0.80;99.90;;;;;;4991582;28;20022;-71
2021/12/23 09:55:29;;;;;;;0.00;0.00;;;0.80;99.90;;;;;;4992477;28;20041;-69
2021/12/23 09:57:57;;;;;;;0.00;0.00;;;0.90;99.90;;;;;;4990106;28;20101;-70
2021/12/23 10:00:28;;;;;;;0.00;0.00;;;0.80;99.90;;;;;;4987376;28;20113;-70
2021/12/23 10:02:54;;;;;;;0.00;0.00;;;0.80;99.90;;;;;;4992581;28;20034;-70
2021/12/23 10:05:26;;;;;;;0.00;0.00;;;0.80;99.90;;;;;;4990581;28;20030;-70
2021/12/23 10:07:54;;;;;;;0.00;0.00;;;0.90;99.90;;;;;;4992247;28;20034;-70
2021/12/23 10:10:38;;;;;;;0.00;0.00;;;0.80;99.90;;;;;;4991246;28;20023;-70
2021/12/23 10:27:13;;;;;;;0.00;0.00;;;1.00;99.90;;;;;;4994461;28;20077;-70
2021/12/23 10:32:50;;;;;;;0.00;0.00;;;1.00;99.90;;;;;;4992786;28;20402;-72
2021/12/23 10:38:06;;;;;;;0.00;0.00;;;1.00;99.90;;;;;;4998181;28;20092;-71
2021/12/23 10:40:32;;;;;;;0.00;0.00;;;1.00;99.90;;;;;;4994916;28;20425;-72
2021/12/23 10:42:58;;;;;;;0.00;0.00;;;1.00;99.90;;;;;;4995387;28;20030;-72
2021/12/23 10:45:24;;;;;;;0.00;0.00;;;1.00;99.90;;;;;;4995462;28;20026;-72
2021/12/23 10:47:59;;;;;;;0.00;0.00;;;1.00;99.90;;;;;;4995315;28;20105;-72
2021/12/23 10:50:33;;;;;;;0.00;0.00;;;1.00;99.90;;;;;;4998597;28;20050;-72
2021/12/23 10:53:09;;;;;;;0.00;0.00;;;1.00;99.90;;;;;;4993800;28;20085;-72
2021/12/23 10:58:21;;;;;;;0.00;0.00;;;1.00;99.90;;;;;;4995310;28;20033;-72
2021/12/23 11:00:53;;;;;;;0.00;0.00;;;1.00;99.90;;;;;;4995448;28;20113;-71
2021/12/23 11:06:00;;;;;;;0.00;0.00;;;1.00;99.90;;;;;;4995253;28;20104;-71
2021/12/23 11:08:45;;;;;;;0.00;0.00;;;1.00;99.90;;;;;;4994853;28;20034;-71
2021/12/23 11:36:17;;;;;;;0.00;0.00;;;1.10;99.90;;;;;;5002284;28;20083;-68
2021/12/23 11:43:48;;;;;;;0.00;0.00;;;1.20;99.90;;;;;;4991071;28;20027;-69
2021/12/23 11:46:17;;;;;;;0.00;0.00;;;1.20;99.90;;;;;;5001456;28;20034;-68
2021/12/23 11:48:45;;;;;;;0.00;0.00;;;1.10;99.90;;;;;;4997741;28;20065;-69
2021/12/23 11:51:19;;;;;;;0.05;0.00;;;1.10;99.90;;;;;;4993513;28;20022;-68
2021/12/23 11:53:48;;;;;;;0.00;0.00;;;1.20;99.90;;;;;;5008096;28;20040;-69
2021/12/23 11:56:16;;;;;;;0.00;0.00;;;1.20;99.90;;;;;;4994373;28;20157;-68
2021/12/23 11:58:43;;;;;;;0.00;0.00;;;1.10;99.90;;;;;;5002557;28;20026;-68
2021/12/23 12:01:15;;;;;;;0.00;0.00;;;1.20;99.90;;;;;;4993302;28;20474;-68
2021/12/23 12:03:57;;;;;;;0.00;0.00;;;1.20;99.90;;;;;;4997266;28;20427;-68
2021/12/23 12:06:30;;;;;;;0.00;0.00;;;1.20;99.90;;;;;;4994154;28;20493;-68
2021/12/23 12:09:12;;;;;;;0.00;0.00;;;1.20;99.90;;;;;;4993628;28;20026;-68
2021/12/23 12:11:39;;;;;;;0.00;0.00;;;1.20;99.90;;;;;;4993002;28;20031;-68
2021/12/23 12:14:25;;;;;;;0.00;0.00;;;1.20;99.90;;;;;;4993586;28;20169;-68
2021/12/23 12:16:50;;;;;;;0.00;0.00;;;1.30;99.90;;;;;;4993581;28;20022;-68
2021/12/23 12:19:15;;;;;;;0.00;0.00;;;1.20;99.90;;;;;;4993649;28;20030;-68
2021/12/23 12:21:42;;;;;;;0.00;0.00;;;1.30;99.90;;;;;;4992805;28;20378;-68
2021/12/23 12:24:13;;;;;;;0.00;0.00;;;1.30;99.90;;;;;;4996428;28;20037;-68
2021/12/23 12:27:01;;;;;;;0.00;0.00;;;1.30;99.90;;;;;;4996318;28;20030;-68
2021/12/23 12:29:36;;;;;;;0.00;0.00;;;1.30;99.90;;;;;;5005365;28;20389;-68
2021/12/23 12:32:02;;;;;;;;;;;1.30;99.90;;;;;;4993672;28;20101;-68
2021/12/23 12:34:34;;;;;;;0.00;0.00;;;1.30;99.90;;;;;;4993168;28;19901;-69
2021/12/23 12:37:00;;;;;;;0.00;0.00;;;1.40;99.90;;;;;;4993584;28;20027;-69
2021/12/23 12:39:35;;;;;;;0.00;0.00;;;1.40;99.90;;;;;;4993419;28;20033;-68
2021/12/23 12:42:08;;;;;;;0.00;0.00;;;1.40;99.90;;;;;;4992952;28;20113;-68
2021/12/23 12:44:42;;;;;;;0.00;0.00;;;1.40;99.90;;;;;;5000092;28;20478;-69
2021/12/23 12:47:14;;;;;;;0.00;0.00;;;1.40;99.90;;;;;;5003600;28;20038;-68
2021/12/23 12:49:46;;;;;;;0.00;0.00;;;1.40;99.90;;;;;;4995307;28;20030;-68
2021/12/23 12:52:23;;;;;;;0.00;0.00;;;1.40;99.90;;;;;;4992752;28;20073;-69
2021/12/23 12:54:56;;;;;;;0.00;0.00;;;1.40;99.90;;;;;;4998070;28;20072;-68
2021/12/23 12:57:26;;;;;;;0.00;0.00;;;1.40;99.90;;;;;;4992980;28;20057;-68
2021/12/23 12:59:52;;;;;;;0.00;0.00;;;1.50;99.90;;;;;;4997369;28;20030;-68
2021/12/23 13:02:31;;;;;;;0.00;0.00;;;1.40;99.90;;;;;;4993866;28;20034;-69
2021/12/23 13:05:11;;;;;;;0.00;0.00;;;1.50;99.90;;;;;;4998032;28;20030;-69
2021/12/23 13:07:42;;;;;;;0.00;0.00;;;1.50;99.90;;;;;;4993447;28;20038;-69
2021/12/23 13:10:14;;;;;;;0.00;0.00;;;1.50;99.90;;;;;;4992479;28;20027;-69
2021/12/23 13:12:48;;;;;;;0.00;0.00;;;1.50;99.90;;;;;;4992967;28;20022;-68
2021/12/23 13:15:24;;;;;;;0.00;0.00;;;1.60;99.90;;;;;;4999714;28;20074;-69
2021/12/23 13:18:11;;;;;;;0.00;0.00;;;1.60;99.90;;;;;;4996861;28;20026;-69
2021/12/23 13:20:47;;;;;;;0.00;0.00;;;1.60;99.90;;;;;;4993288;28;20413;-69
2021/12/23 13:23:32;;;;;;;0.00;0.00;;;1.60;99.90;;;;;;4996934;28;20050;-68
2021/12/23 13:26:01;;;;;;;0.00;0.00;;;1.50;99.90;;;;;;4992709;28;20077;-68
2021/12/23 13:28:28;;;;;;;0.00;0.00;;;1.50;99.90;;;;;;4992503;28;20461;-68
2021/12/23 13:30:54;;;;;;;0.00;0.00;;;1.50;99.90;;;;;;4992126;28;20034;-69
2021/12/23 13:33:20;;;;;;;0.00;0.00;;;1.50;99.90;;;;;;4992675;28;20030;-68
2021/12/23 13:35:45;;;;;;;0.00;0.00;;;1.50;99.90;;;;;;4995171;28;20053;-69
2021/12/23 13:38:30;;;;;;;0.00;0.00;;;1.40;99.90;;;;;;4993664;28;20109;-68
2021/12/23 13:41:09;;;;;;;0.00;0.00;;;1.40;99.90;;;;;;4991483;28;20034;-68
2021/12/23 13:43:34;;;;;;;0.00;0.00;;;1.30;99.90;;;;;;4994263;28;20049;-68
2021/12/23 13:46:08;;;;;;;0.00;0.00;;;1.20;99.90;;;;;;4993300;28;20030;-69
2021/12/23 13:49:06;;;;;;;0.00;0.00;;;1.20;99.90;;;;;;4993516;28;20105;-69
2021/12/23 13:51:34;;;;;;;0.00;0.00;;;1.10;99.90;;;;;;4989421;28;20520;-69
2021/12/23 13:54:04;;;;;;;0.00;0.00;;;1.00;99.90;;;;;;4995516;28;20034;-68
2021/12/23 13:56:32;;;;;;;0.00;0.00;;;1.00;99.90;;;;;;4997415;28;20129;-69
2021/12/23 13:59:13;;;;;;;0.00;0.00;;;0.90;99.90;;;;;;4998446;28;20418;-69
2021/12/23 14:02:17;;;;;;;0.00;0.00;;;0.90;99.90;;;;;;4987333;28;20623;-69
2021/12/23 14:04:45;;;;;;;0.00;0.00;;;0.90;99.90;;;;;;4998223;28;20100;-69